• Join FlightAware (Why Join?)
  • Login
  • US Flag 
11:36AM EDT


 

Airport Tracker/Info


-or-


 

Live Flight TrackerFlight Track Log ✈ DAL6225 ✈ 25-Apr-2013 ✈ KMSN - KLGA

Flight Track Log - Related Links

Times and Time Zones

All times are in EDT time to prevent confusion due to time zone crossing. See the DAL6225 flight status page for this flight to view local times or setup timezone preferences in your user account.

Time Position Orientation Groundspeed Altitude Reporting Facility
EDT Latitude Longitude Course Direction KTS MPH feet Rate Location/Type
08:47AM 43.1706 -89.3192 46° Northeast 183 211 3,200  Level Chicago Center
08:48AM 43.2122 -89.2606 46° Northeast 204 235 5,400 2,400 Climbing Chicago Center
08:49AM 43.2664 -89.1858 45° Northeast 261 300 8,200 2,700 Climbing Chicago Center
08:50AM 43.2797 -89.0642 81° East 301 346 11,000 2,040 Climbing Chicago Center
08:51AM 43.2536 -88.9406 106° East 337 388 12,500 1,560 Climbing Chicago Center
08:53AM 43.2258 -88.8044 106° East 367 422 14,200 1,320 Climbing Chicago Center
08:54AM 43.1950 -88.6575 106° East 398 458 15,300 1,140 Climbing Chicago Center
08:55AM 43.1614 -88.5000 106° East 428 493 16,600 1,380 Climbing Chicago Center
08:56AM 43.1214 -88.3061 106° East 455 524 18,200 1,680 Climbing Chicago Center
08:57AM 43.1239 -88.1353 89° East 452 520 20,100 1,740 Climbing Chicago Center
08:58AM 43.1322 -87.9650 86° East 451 519 21,900 1,680 Climbing Chicago Center
08:59AM 43.1408 -87.7947 86° East 450 518 23,600 1,380 Climbing Chicago Center
09:00AM 43.1478 -87.6214 87° East 456 525 24,800 1,140 Climbing Chicago Center
09:01AM 43.1575 -87.4106 86° East 476 548 26,000 1,020 Climbing Chicago Center
09:02AM 43.1658 -87.2311 86° East 488 562 27,000 960 Climbing Chicago Center
09:03AM 43.1714 -87.0439 88° East 493 567 28,000 960 Climbing Chicago Center
09:04AM 43.1800 -86.8550 86° East 498 573 29,000 960 Climbing Chicago Center
09:05AM 43.1858 -86.6639 88° East 501 577 30,000 960 Climbing Chicago Center
09:06AM 43.1939 -86.4728 87° East 503 579 31,000 960 Climbing Chicago Center
09:07AM 43.1992 -86.2817 88° East 501 577 32,100 1,020 Climbing Chicago Center
09:08AM 43.2053 -86.0878 87° East 503 579 33,100 960 Climbing Chicago Center
09:09AM 43.2119 -85.8553 88° East 499 574 34,100 720 Climbing Chicago Center
09:10AM 43.2167 -85.6631 88° East 499 574 34,600 420 Climbing Chicago Center
09:11AM 43.2222 -85.4672 88° East 510 587 35,000 180 Climbing Chicago Center
09:12AM 43.2253 -85.3364 88° East 517 595 35,000  Level Cleveland Center
09:13AM 43.2269 -85.1369 89° East 517 595 35,000  Level Cleveland Center
09:14AM 43.2306 -84.9375 89° East 522 601 35,000  Level Cleveland Center
09:15AM 43.2358 -84.7383 88° East 522 601 35,000  Level Cleveland Center
09:16AM 43.2386 -84.5389 89° East 522 601 35,000  Level Cleveland Center
09:17AM 43.2411 -84.3367 89° East 522 601 35,000  Level Cleveland Center
09:18AM 43.2433 -84.1400 89° East 522 601 35,000  Level Cleveland Center
09:19AM 43.2478 -83.9208 88° East 517 595 35,000  Level Cleveland Center
09:20AM 43.2486 -83.7442 90° East 517 595 35,000  Level Cleveland Center
09:21AM 43.2517 -83.5478 89° East 512 589 35,000  Level Cleveland Center
09:22AM 43.2525 -83.3481 90° East 518 596 35,000  Level Cleveland Center
09:23AM 43.2550 -83.1458 89° East 518 596 35,000  Level Cleveland Center
09:24AM 43.2550 -82.9519 90° East 512 589 35,000  Level Cleveland Center
09:25AM 43.2567 -82.7581 89° East 512 589 35,000  Level Cleveland Center
09:25AM 43.2500 -82.5833 93° East 520 598 35,000  Level Toronto Center
09:26AM 43.2167 -82.3833 103° East 520 598 35,000  Level Toronto Center
09:27AM 43.2000 -82.2000 97° East 520 598 35,000  Level Toronto Center
09:28AM 43.1833 -81.9833 96° East 520 598 35,000  Level Toronto Center
09:29AM 43.1833 -81.7833 90° East 520 598 35,000  Level Toronto Center
09:30AM 43.1667 -81.6000 97° East 520 598 35,000  Level Toronto Center
09:31AM 43.1500 -81.4000 96° East 520 598 35,000  Level Toronto Center
09:32AM 43.1333 -81.2167 97° East 520 598 35,000  Level Toronto Center
09:33AM 43.1167 -81.0000 96° East 520 598 35,000  Level Toronto Center
09:34AM 43.1000 -80.8167 97° East 520 598 35,000  Level Toronto Center
09:35AM 43.1000 -80.6167 90° East 520 598 35,000  Level Toronto Center
09:36AM 43.0833 -80.4167 96° East 520 598 35,000  Level Toronto Center
09:37AM 43.0667 -80.2333 97° East 520 598 35,000  Level Toronto Center
09:38AM 43.0500 -80.0167 96° East 520 598 35,000  Level Toronto Center
09:39AM 43.0333 -79.8167 96° East 520 598 35,000  Level Toronto Center
09:40AM 43.0167 -79.6333 97° East 520 598 35,000  Level Toronto Center
09:41AM 43.0000 -79.4333 96° East 520 598 35,000  Level Toronto Center
09:42AM 42.9833 -79.2167 96° East 530 610 35,000  Level Toronto Center
09:43AM 42.9667 -79.0167 96° East 530 610 35,000  Level Toronto Center
09:44AM 42.9500 -78.8333 97° East 530 610 35,000  Level Toronto Center
09:45AM 42.9344 -78.6806 98° East 522 601 35,000  Level Cleveland Center
09:46AM 42.9142 -78.4825 98° East 522 601 35,000  Level Cleveland Center
09:47AM 42.8939 -78.2878 98° East 522 601 35,000  Level Cleveland Center
09:48AM 42.8731 -78.0844 98° East 522 601 35,000  Level Cleveland Center
09:49AM 42.8519 -77.8900 98° East 522 601 35,000  Level Cleveland Center
09:50AM 42.8333 -77.7264 99° East 522 601 35,000  Level Cleveland Center
09:52AM 42.7822 -77.3494 100° East 532 612 35,000  Level Boston Center
09:53AM 42.7531 -77.1517 101° East 532 612 35,000 -300 Level Boston Center
09:54AM 42.7256 -76.9544 101° East 527 606 34,500 -780 Descending Boston Center
09:55AM 42.6978 -76.7547 101° East 532 612 33,500 -780 Descending Boston Center
09:56AM 42.6697 -76.5606 101° East 527 606 33,000 -300 Descending Boston Center
09:57AM 42.6389 -76.3664 102° East 527 606 33,000  Level Boston Center
09:58AM 42.6086 -76.1500 101° East 522 601 33,000  Level Boston Center
09:59AM 42.5772 -75.9564 102° East 522 601 33,000 -180 Level Boston Center
10:00AM 42.5497 -75.7661 101° East 522 601 32,700 -660 Descending Boston Center
10:01AM 42.5197 -75.5756 102° East 522 601 31,700 -1,020 Descending Boston Center
10:02AM 42.4875 -75.3739 102° East 522 601 30,700 -960 Descending Boston Center
10:03AM 42.4444 -75.1833 107° East 528 608 29,800 -1,200 Descending Boston Center
10:04AM 42.3836 -75.0178 116° Southeast 514 592 28,400 -1,740 Descending Boston Center
10:05AM 42.3267 -74.8553 115° Southeast 492 566 26,400 -2,100 Descending Boston Center
10:06AM 42.2656 -74.6958 117° Southeast 482 555 24,200 -2,040 Descending Boston Center
10:07AM 42.2200 -74.5708 116° Southeast 470 541 22,400 -2,160 Descending Boston Center
10:08AM 42.1583 -74.4033 116° Southeast 439 505 19,900 -2,220 Descending Boston Center
10:09AM 42.1064 -74.2731 118° Southeast 432 497 18,000 -1,080 Descending Boston Center
10:10AM 42.0139 -74.1781 143° Southeast 373 429 17,800 -720 Descending Boston Center
10:11AM 41.9189 -74.1308 160° South 367 422 16,600 -1,200 Descending Boston Center
10:12AM 41.8194 -74.0808 159° South 381 438 15,400 -1,380 Descending Boston Center
10:13AM 41.7203 -74.0311 159° South 381 438 13,900 -1,560 Descending Boston Center
10:14AM 41.6250 -73.9814 159° South 381 438 12,300 -1,560 Descending Boston Center
10:15AM 41.5167 -73.9167 156° South 350 403 10,500 -1,260 Descending New York TRACON
10:16AM 41.4333 -73.8833 163° South 290 334 9,500 -1,200 Descending New York TRACON
10:17AM 41.3667 -73.8167 143° Southeast 274 315 8,100 -780 Descending New York TRACON
10:18AM 41.3000 -73.7667 151° Southeast 281 323 8,000 -60 Descending New York TRACON
10:19AM 41.2500 -73.7000 135° Southeast 287 330 8,000 -480 Level New York TRACON
10:20AM 41.2167 -73.6167 118° Southeast 297 342 7,100 -960 Descending New York TRACON
10:21AM 41.1333 -73.5833 163° South 279 321 6,100 -1,020 Descending New York TRACON
10:22AM 41.0500 -73.5833 180° South 287 330 5,100 -1,020 Descending New York TRACON
10:23AM 40.9833 -73.6000 191° South 282 325 4,100 -600 Descending New York TRACON
10:24AM 40.9000 -73.6167 189° South 274 315 4,000 -60 Descending New York TRACON
10:25AM 40.8333 -73.6500 201° Southwest 281 323 4,000  Level New York TRACON
10:26AM 40.8000 -73.7333 242° Southwest 241 277 4,000  Level New York TRACON
10:27AM 40.8000 -73.8000 270° West 178 205 4,000  Level New York TRACON
10:28AM 40.7833 -73.8667 252° West 184 212 4,000  Level New York TRACON
10:29AM 40.7667 -73.9167 246° West 182 209 4,000  Level New York TRACON
10:30AM 40.7500 -73.9833 252° West 184 212 4,000  Level New York TRACON
10:31AM 40.7167 -74.0333 229° Southwest 197 227 4,000  Level New York TRACON
10:32AM 40.6667 -74.0667 207° Southwest 201 231 4,000 -240 Level New York TRACON
10:33AM 40.6167 -74.1000 207° Southwest 197 227 3,600 -540 Descending New York TRACON
10:34AM 40.5833 -74.0667 143° Southeast 210 242 3,000 -600 Descending New York TRACON
10:35AM 40.6167 -74.0167 49° Northeast 189 217 2,500 -540 Descending New York TRACON